CST,Max TemperatureF,Mean TemperatureF,Min TemperatureF,Max Dew PointF,MeanDew PointF,Min DewpointF,Max Humidity, Mean Humidity, Min Humidity, Max Sea Level PressureIn, Mean Sea Level PressureIn, Min Sea Level PressureIn, Max VisibilityMiles, Mean VisibilityMiles, Min VisibilityMiles, Max Wind SpeedMPH, Mean Wind SpeedMPH, Max Gust SpeedMPH,PrecipitationIn, CloudCover, Events, WindDirDegrees
2012-11-1,55,44,32,40,36,32,96,78,56,30.02,29.97,29.93,10,8,0,20,6,23,0.00,1,Fog,355
2012-11-2,52,42,32,34,31,28,99,69,39,30.09,29.99,29.94,10,9,2,16,7,21,0.00,0,,57
2012-11-3,54,42,30,36,31,27,88,72,47,30.22,30.17,30.09,10,10,0,10,7,,0.00,1,,336
2012-11-4,61,47,33,43,37,31,92,72,37,30.19,30.09,29.99,10,9,5,16,5,23,0.06,6,Rain,222
2012-11-5,44,41,38,42,37,35,92,86,76,30.17,30.11,30.04,10,9,5,25,15,32,0.02,8,,325
2012-11-6,58,47,36,38,32,26,91,60,30,30.09,30.02,29.94,10,10,7,29,13,36,0.00,1,,299
2012-11-7,54,41,28,32,30,25,87,66,39,30.19,30.10,30.00,10,10,10,10,7,,0.00,0,,204
2012-11-8,65,50,34,35,32,29,82,60,29,30.00,29.90,29.84,10,10,10,15,8,23,0.00,0,,152
2012-11-9,64,49,34,55,41,32,92,78,55,29.85,29.76,29.61,10,10,5,15,8,17,0.00,1,,47
2012-11-10,78,59,38,56,52,35,93,67,42,29.70,29.55,29.44,10,10,5,34,16,41,0.11,2,Rain,184
2012-11-11,35,30,25,33,19,13,94,69,45,30.18,29.97,29.72,10,10,3,26,18,33,0.00,3,,314
2012-11-12,41,30,19,18,16,14,82,58,32,30.36,30.27,30.18,10,10,10,24,11,30,0.00,0,,275
2012-11-13,57,36,16,29,19,10,84,55,15,30.37,30.30,30.22,10,10,10,15,6,23,0.00,1,,176
2012-11-14,58,42,26,29,25,22,85,56,24,30.31,30.24,30.16,10,10,10,14,7,18,0.00,0,,186
2012-11-15,59,46,30,33,30,27,86,61,31,30.44,30.30,30.17,10,10,10,13,6,18,0.00,2,,334
2012-11-16,56,38,21,33,29,20,94,73,39,30.46,30.38,30.27,10,10,7,16,7,18,0.00,0,,149
2012-11-17,63,46,30,35,32,29,91,63,33,30.28,30.19,30.12,10,10,7,26,11,32,0.00,0,,156
2012-11-18,61,48,34,40,32,27,75,52,31,30.14,30.07,30.01,10,10,10,21,12,25,0.00,0,,158
2012-11-19,63,48,32,38,35,31,93,67,39,30.13,30.05,29.99,10,10,10,14,7,18,0.00,0,,280
2012-11-20,63,46,30,36,32,28,92,64,31,30.23,30.16,30.11,10,10,7,10,6,,0.00,0,,178
2012-11-21,72,53,34,46,39,30,85,58,28,30.11,29.97,29.78,10,10,10,25,11,36,0.00,0,,187
2012-11-22,61,50,38,45,37,27,81,60,40,30.24,29.94,29.72,10,10,10,28,13,39,0.00,1,,285
2012-11-23,40,29,14,19,10,4,77,50,28,30.52,30.43,30.25,10,10,10,34,19,45,0.00,0,,320
2012-11-24,48,32,15,27,17,8,79,56,32,30.38,30.06,29.85,10,10,10,21,7,25,0.00,0,,166
2012-11-25,41,36,30,29,27,22,82,67,53,30.15,30.00,29.87,10,10,10,14,7,,0.00,3,,348
2012-11-26,34,24,13,28,20,9,90,74,60,30.45,30.35,30.16,10,9,1,17,10,21,0.00,5,Snow,348
2012-11-27,45,26,8,28,18,5,89,76,46,30.43,30.29,30.15,10,10,7,18,7,26,0.00,0,,219
2012-11-28,48,32,15,28,22,13,93,73,34,30.36,30.24,30.08,10,9,7,16,4,20,0.00,0,,153
2012-11-29,56,39,22,35,29,21,94,75,42,30.08,29.97,29.91,10,10,7,9,4,,0.00,0,,169
2012-11-30,46,36,27,32,28,24,93,75,56,30.10,30.02,29.95,10,9,5,16,8,20,0.00,0,,1